Bonilla, South Dakota
Current Conditions -  °F | °C
As of 7:55 AM on Wednesday 28 Jan 2015 (Local Time) from KHON Reporting Station
Clear Clear  
Wind Chill: 26°   Ceiling: Unl
Heat Index: 32°   Visibility: 10mi
Dew Point: 30°   Wind: 7mph
Humidity: 92%   Direction: 150°SSE
Pressure: 29.71"   Gusts: NA
Location:  44.5719°N, 98.4744°W
Report Text: KHON 281355Z AUTO 15006KT 10SM CLR 00/M01 A2971 RMK AO2 SLP074 T00001011
Loading
Personal Weather Stations






























Interactive Weather Map New forecast layout! Learn more

10-Day Weather Forecast

Advertisements
Track Severe Weather on mobile